sensor_id;sensor_type;location;lat;lon;timestamp;P1;durP1;ratioP1;P2;durP2;ratioP2
83630;SDS011;73593;52.134;5.426;2024-01-30T00:02:10;15.10;;;7.93;;
83630;SDS011;73593;52.134;5.426;2024-01-30T00:04:36;15.75;;;7.25;;
83630;SDS011;73593;52.134;5.426;2024-01-30T00:07:08;17.10;;;7.78;;
83630;SDS011;73593;52.134;5.426;2024-01-30T00:09:37;13.52;;;7.10;;
83630;SDS011;73593;52.134;5.426;2024-01-30T00:12:06;13.05;;;7.55;;
83630;SDS011;73593;52.134;5.426;2024-01-30T00:14:33;13.90;;;6.60;;
83630;SDS011;73593;52.134;5.426;2024-01-30T00:16:59;17.20;;;7.72;;
83630;SDS011;73593;52.134;5.426;2024-01-30T00:19:26;14.57;;;7.70;;
83630;SDS011;73593;52.134;5.426;2024-01-30T00:21:55;21.15;;;7.22;;
83630;SDS011;73593;52.134;5.426;2024-01-30T00:24:21;17.40;;;7.70;;
83630;SDS011;73593;52.134;5.426;2024-01-30T00:26:50;16.58;;;7.30;;
83630;SDS011;73593;52.134;5.426;2024-01-30T00:29:18;16.52;;;7.45;;
83630;SDS011;73593;52.134;5.426;2024-01-30T00:31:51;19.95;;;8.70;;
83630;SDS011;73593;52.134;5.426;2024-01-30T00:34:18;15.75;;;6.72;;
83630;SDS011;73593;52.134;5.426;2024-01-30T00:36:45;16.50;;;7.10;;
83630;SDS011;73593;52.134;5.426;2024-01-30T00:39:12;20.27;;;7.38;;
83630;SDS011;73593;52.134;5.426;2024-01-30T00:41:39;14.63;;;7.45;;
83630;SDS011;73593;52.134;5.426;2024-01-30T00:44:05;15.52;;;7.57;;
83630;SDS011;73593;52.134;5.426;2024-01-30T00:46:32;15.93;;;7.82;;
83630;SDS011;73593;52.134;5.426;2024-01-30T00:48:59;17.70;;;7.25;;
83630;SDS011;73593;52.134;5.426;2024-01-30T00:51:25;13.40;;;6.88;;
83630;SDS011;73593;52.134;5.426;2024-01-30T00:53:52;15.00;;;7.63;;
83630;SDS011;73593;52.134;5.426;2024-01-30T00:56:19;13.70;;;7.18;;
83630;SDS011;73593;52.134;5.426;2024-01-30T00:58:50;13.25;;;6.82;;
83630;SDS011;73593;52.134;5.426;2024-01-30T01:01:21;15.45;;;7.28;;
83630;SDS011;73593;52.134;5.426;2024-01-30T01:03:48;13.45;;;7.10;;
83630;SDS011;73593;52.134;5.426;2024-01-30T01:06:15;15.50;;;6.93;;
83630;SDS011;73593;52.134;5.426;2024-01-30T01:08:44;17.63;;;7.35;;
83630;SDS011;73593;52.134;5.426;2024-01-30T01:11:13;13.75;;;7.28;;
83630;SDS011;73593;52.134;5.426;2024-01-30T01:13:42;12.68;;;7.05;;
83630;SDS011;73593;52.134;5.426;2024-01-30T01:16:11;15.95;;;7.20;;
83630;SDS011;73593;52.134;5.426;2024-01-30T01:18:40;14.15;;;6.90;;
83630;SDS011;73593;52.134;5.426;2024-01-30T01:21:07;14.60;;;7.40;;
83630;SDS011;73593;52.134;5.426;2024-01-30T01:23:34;15.35;;;6.78;;
83630;SDS011;73593;52.134;5.426;2024-01-30T01:26:03;12.18;;;6.80;;
83630;SDS011;73593;52.134;5.426;2024-01-30T01:28:29;15.02;;;7.05;;
83630;SDS011;73593;52.134;5.426;2024-01-30T01:31:01;15.32;;;7.13;;
83630;SDS011;73593;52.134;5.426;2024-01-30T01:33:32;14.73;;;6.90;;
83630;SDS011;73593;52.134;5.426;2024-01-30T01:36:03;15.18;;;6.40;;
83630;SDS011;73593;52.134;5.426;2024-01-30T01:38:31;11.95;;;6.85;;
83630;SDS011;73593;52.134;5.426;2024-01-30T01:40:58;12.27;;;6.53;;
83630;SDS011;73593;52.134;5.426;2024-01-30T01:43:24;11.52;;;6.45;;
83630;SDS011;73593;52.134;5.426;2024-01-30T01:45:53;14.63;;;6.80;;
83630;SDS011;73593;52.134;5.426;2024-01-30T01:48:21;13.63;;;6.97;;
83630;SDS011;73593;52.134;5.426;2024-01-30T01:50:50;15.80;;;6.60;;
83630;SDS011;73593;52.134;5.426;2024-01-30T01:53:23;15.23;;;7.63;;
83630;SDS011;73593;52.134;5.426;2024-01-30T01:55:50;14.38;;;6.68;;
83630;SDS011;73593;52.134;5.426;2024-01-30T01:58:19;13.98;;;5.65;;
83630;SDS011;73593;52.134;5.426;2024-01-30T02:00:51;13.57;;;6.65;;
83630;SDS011;73593;52.134;5.426;2024-01-30T02:03:18;13.43;;;6.15;;
83630;SDS011;73593;52.134;5.426;2024-01-30T02:05:48;14.38;;;6.25;;
83630;SDS011;73593;52.134;5.426;2024-01-30T02:08:17;12.25;;;6.78;;
83630;SDS011;73593;52.134;5.426;2024-01-30T02:10:43;11.35;;;5.65;;
83630;SDS011;73593;52.134;5.426;2024-01-30T02:13:15;12.55;;;6.05;;
83630;SDS011;73593;52.134;5.426;2024-01-30T02:15:48;11.75;;;6.47;;
83630;SDS011;73593;52.134;5.426;2024-01-30T02:18:15;13.48;;;6.25;;
83630;SDS011;73593;52.134;5.426;2024-01-30T02:20:42;12.35;;;6.80;;
83630;SDS011;73593;52.134;5.426;2024-01-30T02:23:09;11.40;;;6.35;;
83630;SDS011;73593;52.134;5.426;2024-01-30T02:25:40;13.63;;;6.18;;
83630;SDS011;73593;52.134;5.426;2024-01-30T02:28:16;15.73;;;7.30;;
83630;SDS011;73593;52.134;5.426;2024-01-30T02:30:43;10.88;;;5.80;;
83630;SDS011;73593;52.134;5.426;2024-01-30T02:33:15;12.18;;;6.13;;
83630;SDS011;73593;52.134;5.426;2024-01-30T02:35:44;13.23;;;5.57;;
83630;SDS011;73593;52.134;5.426;2024-01-30T02:38:18;10.27;;;5.68;;
83630;SDS011;73593;52.134;5.426;2024-01-30T02:40:45;12.57;;;5.78;;
83630;SDS011;73593;52.134;5.426;2024-01-30T02:43:12;11.65;;;5.47;;
83630;SDS011;73593;52.134;5.426;2024-01-30T02:45:38;14.88;;;6.18;;
83630;SDS011;73593;52.134;5.426;2024-01-30T02:48:05;12.43;;;5.97;;
83630;SDS011;73593;52.134;5.426;2024-01-30T02:50:32;12.45;;;5.90;;
83630;SDS011;73593;52.134;5.426;2024-01-30T02:53:01;15.30;;;6.57;;
83630;SDS011;73593;52.134;5.426;2024-01-30T02:55:28;15.55;;;7.07;;
83630;SDS011;73593;52.134;5.426;2024-01-30T02:57:54;14.32;;;6.55;;
83630;SDS011;73593;52.134;5.426;2024-01-30T03:00:24;14.13;;;6.70;;
83630;SDS011;73593;52.134;5.426;2024-01-30T03:02:53;16.75;;;6.55;;
83630;SDS011;73593;52.134;5.426;2024-01-30T03:05:20;14.43;;;7.00;;
83630;SDS011;73593;52.134;5.426;2024-01-30T03:07:47;18.55;;;6.90;;
83630;SDS011;73593;52.134;5.426;2024-01-30T03:10:16;14.93;;;7.75;;
83630;SDS011;73593;52.134;5.426;2024-01-30T03:12:43;15.38;;;7.55;;
83630;SDS011;73593;52.134;5.426;2024-01-30T03:15:09;15.23;;;7.70;;
83630;SDS011;73593;52.134;5.426;2024-01-30T03:17:36;17.55;;;7.95;;
83630;SDS011;73593;52.134;5.426;2024-01-30T03:20:03;15.10;;;7.85;;
83630;SDS011;73593;52.134;5.426;2024-01-30T03:22:31;17.83;;;8.90;;
83630;SDS011;73593;52.134;5.426;2024-01-30T03:25:00;19.50;;;8.68;;
83630;SDS011;73593;52.134;5.426;2024-01-30T03:27:27;14.38;;;7.95;;
83630;SDS011;73593;52.134;5.426;2024-01-30T03:29:53;14.32;;;7.55;;
83630;SDS011;73593;52.134;5.426;2024-01-30T03:32:20;17.67;;;9.45;;
83630;SDS011;73593;52.134;5.426;2024-01-30T03:34:47;18.75;;;8.38;;
83630;SDS011;73593;52.134;5.426;2024-01-30T03:37:13;14.43;;;8.23;;
83630;SDS011;73593;52.134;5.426;2024-01-30T03:39:42;19.23;;;7.82;;
83630;SDS011;73593;52.134;5.426;2024-01-30T03:42:11;16.05;;;8.50;;
83630;SDS011;73593;52.134;5.426;2024-01-30T03:44:38;17.40;;;7.63;;
83630;SDS011;73593;52.134;5.426;2024-01-30T03:47:05;16.90;;;7.97;;
83630;SDS011;73593;52.134;5.426;2024-01-30T03:49:34;16.38;;;7.68;;
83630;SDS011;73593;52.134;5.426;2024-01-30T03:52:01;13.50;;;6.82;;
83630;SDS011;73593;52.134;5.426;2024-01-30T03:54:30;14.23;;;7.15;;
83630;SDS011;73593;52.134;5.426;2024-01-30T03:56:59;13.85;;;5.93;;
83630;SDS011;73593;52.134;5.426;2024-01-30T03:59:28;12.23;;;6.30;;
83630;SDS011;73593;52.134;5.426;2024-01-30T04:01:55;12.68;;;6.55;;
83630;SDS011;73593;52.134;5.426;2024-01-30T04:04:24;12.45;;;6.35;;
83630;SDS011;73593;52.134;5.426;2024-01-30T04:06:51;13.18;;;6.30;;
83630;SDS011;73593;52.134;5.426;2024-01-30T04:09:18;12.55;;;5.88;;
83630;SDS011;73593;52.134;5.426;2024-01-30T04:11:44;11.00;;;6.35;;
83630;SDS011;73593;52.134;5.426;2024-01-30T04:14:11;10.73;;;5.55;;
83630;SDS011;73593;52.134;5.426;2024-01-30T04:16:38;11.23;;;5.93;;
83630;SDS011;73593;52.134;5.426;2024-01-30T04:19:04;13.55;;;5.65;;
83630;SDS011;73593;52.134;5.426;2024-01-30T04:21:31;11.20;;;5.25;;
83630;SDS011;73593;52.134;5.426;2024-01-30T04:24:00;12.25;;;5.50;;
83630;SDS011;73593;52.134;5.426;2024-01-30T04:26:31;10.77;;;5.00;;
83630;SDS011;73593;52.134;5.426;2024-01-30T04:29:00;11.55;;;5.43;;
83630;SDS011;73593;52.134;5.426;2024-01-30T04:31:27;10.77;;;4.97;;
83630;SDS011;73593;52.134;5.426;2024-01-30T04:33:53;9.73;;;5.30;;
83630;SDS011;73593;52.134;5.426;2024-01-30T04:36:20;11.90;;;5.32;;
83630;SDS011;73593;52.134;5.426;2024-01-30T04:38:49;10.60;;;4.95;;
83630;SDS011;73593;52.134;5.426;2024-01-30T04:41:16;12.38;;;5.30;;
83630;SDS011;73593;52.134;5.426;2024-01-30T04:43:43;12.57;;;5.40;;
83630;SDS011;73593;52.134;5.426;2024-01-30T04:46:11;10.27;;;5.03;;
83630;SDS011;73593;52.134;5.426;2024-01-30T04:48:40;11.75;;;5.05;;
83630;SDS011;73593;52.134;5.426;2024-01-30T04:51:07;10.05;;;5.28;;
83630;SDS011;73593;52.134;5.426;2024-01-30T04:53:34;14.18;;;5.82;;
83630;SDS011;73593;52.134;5.426;2024-01-30T04:56:00;10.10;;;4.82;;
83630;SDS011;73593;52.134;5.426;2024-01-30T04:58:30;11.55;;;5.18;;
83630;SDS011;73593;52.134;5.426;2024-01-30T05:01:02;10.68;;;4.93;;
83630;SDS011;73593;52.134;5.426;2024-01-30T05:03:32;11.57;;;5.43;;
83630;SDS011;73593;52.134;5.426;2024-01-30T05:06:00;10.27;;;4.53;;
83630;SDS011;73593;52.134;5.426;2024-01-30T05:08:30;12.40;;;4.82;;
83630;SDS011;73593;52.134;5.426;2024-01-30T05:10:59;12.00;;;5.78;;
83630;SDS011;73593;52.134;5.426;2024-01-30T05:13:32;10.13;;;5.28;;
83630;SDS011;73593;52.134;5.426;2024-01-30T05:16:01;11.70;;;5.30;;
83630;SDS011;73593;52.134;5.426;2024-01-30T05:18:29;10.65;;;5.40;;
83630;SDS011;73593;52.134;5.426;2024-01-30T05:20:56;10.38;;;5.10;;
83630;SDS011;73593;52.134;5.426;2024-01-30T05:23:23;9.63;;;4.93;;
83630;SDS011;73593;52.134;5.426;2024-01-30T05:25:49;11.90;;;5.28;;
83630;SDS011;73593;52.134;5.426;2024-01-30T05:28:16;9.52;;;4.97;;
83630;SDS011;73593;52.134;5.426;2024-01-30T05:30:42;10.50;;;4.97;;
83630;SDS011;73593;52.134;5.426;2024-01-30T05:33:09;10.55;;;5.28;;
83630;SDS011;73593;52.134;5.426;2024-01-30T05:35:40;10.45;;;4.90;;
83630;SDS011;73593;52.134;5.426;2024-01-30T05:38:10;13.25;;;6.20;;
83630;SDS011;73593;52.134;5.426;2024-01-30T05:40:37;13.52;;;5.63;;
83630;SDS011;73593;52.134;5.426;2024-01-30T05:43:04;10.95;;;5.65;;
83630;SDS011;73593;52.134;5.426;2024-01-30T05:45:31;12.23;;;5.50;;
83630;SDS011;73593;52.134;5.426;2024-01-30T05:48:01;9.60;;;5.13;;
83630;SDS011;73593;52.134;5.426;2024-01-30T05:50:30;10.93;;;5.15;;
83630;SDS011;73593;52.134;5.426;2024-01-30T05:52:59;12.35;;;5.65;;
83630;SDS011;73593;52.134;5.426;2024-01-30T05:55:31;10.60;;;5.30;;
83630;SDS011;73593;52.134;5.426;2024-01-30T05:58:00;10.70;;;5.30;;
83630;SDS011;73593;52.134;5.426;2024-01-30T06:00:34;9.20;;;5.03;;
83630;SDS011;73593;52.134;5.426;2024-01-30T06:03:00;10.30;;;4.88;;
83630;SDS011;73593;52.134;5.426;2024-01-30T06:05:31;10.50;;;5.20;;
83630;SDS011;73593;52.134;5.426;2024-01-30T06:07:58;12.50;;;4.75;;
83630;SDS011;73593;52.134;5.426;2024-01-30T06:10:25;10.57;;;4.57;;
83630;SDS011;73593;52.134;5.426;2024-01-30T06:12:52;12.82;;;5.82;;
83630;SDS011;73593;52.134;5.426;2024-01-30T06:15:21;10.75;;;5.18;;
83630;SDS011;73593;52.134;5.426;2024-01-30T06:17:50;10.32;;;4.65;;
83630;SDS011;73593;52.134;5.426;2024-01-30T06:20:19;10.43;;;4.50;;
83630;SDS011;73593;52.134;5.426;2024-01-30T06:22:46;12.95;;;5.82;;
83630;SDS011;73593;52.134;5.426;2024-01-30T06:25:13;12.75;;;5.03;;
83630;SDS011;73593;52.134;5.426;2024-01-30T06:27:39;14.00;;;4.88;;
83630;SDS011;73593;52.134;5.426;2024-01-30T06:30:08;11.25;;;5.32;;
83630;SDS011;73593;52.134;5.426;2024-01-30T06:32:38;10.68;;;4.93;;
83630;SDS011;73593;52.134;5.426;2024-01-30T06:35:05;9.80;;;5.00;;
83630;SDS011;73593;52.134;5.426;2024-01-30T06:37:32;10.77;;;5.28;;
83630;SDS011;73593;52.134;5.426;2024-01-30T06:39:59;13.55;;;5.60;;
83630;SDS011;73593;52.134;5.426;2024-01-30T06:42:25;11.13;;;5.07;;
83630;SDS011;73593;52.134;5.426;2024-01-30T06:44:52;12.25;;;5.30;;
83630;SDS011;73593;52.134;5.426;2024-01-30T06:47:23;10.00;;;4.40;;
83630;SDS011;73593;52.134;5.426;2024-01-30T06:49:50;11.85;;;5.30;;
83630;SDS011;73593;52.134;5.426;2024-01-30T06:52:20;10.40;;;5.32;;
83630;SDS011;73593;52.134;5.426;2024-01-30T06:54:49;10.15;;;4.93;;
83630;SDS011;73593;52.134;5.426;2024-01-30T06:57:16;12.45;;;5.20;;
83630;SDS011;73593;52.134;5.426;2024-01-30T06:59:45;11.18;;;4.78;;
83630;SDS011;73593;52.134;5.426;2024-01-30T07:02:14;12.88;;;5.28;;
83630;SDS011;73593;52.134;5.426;2024-01-30T07:04:41;14.43;;;5.60;;
83630;SDS011;73593;52.134;5.426;2024-01-30T07:07:12;11.25;;;4.93;;
83630;SDS011;73593;52.134;5.426;2024-01-30T07:09:41;10.82;;;4.88;;
83630;SDS011;73593;52.134;5.426;2024-01-30T07:12:11;12.18;;;4.75;;
83630;SDS011;73593;52.134;5.426;2024-01-30T07:14:37;9.90;;;4.97;;
83630;SDS011;73593;52.134;5.426;2024-01-30T07:17:06;10.95;;;4.93;;
83630;SDS011;73593;52.134;5.426;2024-01-30T07:19:37;12.50;;;5.45;;
83630;SDS011;73593;52.134;5.426;2024-01-30T07:22:03;9.52;;;4.88;;
83630;SDS011;73593;52.134;5.426;2024-01-30T07:24:33;9.95;;;5.07;;
83630;SDS011;73593;52.134;5.426;2024-01-30T07:26:59;10.60;;;5.15;;
83630;SDS011;73593;52.134;5.426;2024-01-30T07:29:26;11.85;;;5.25;;
83630;SDS011;73593;52.134;5.426;2024-01-30T07:31:55;11.63;;;5.28;;
83630;SDS011;73593;52.134;5.426;2024-01-30T07:34:24;11.70;;;5.68;;
83630;SDS011;73593;52.134;5.426;2024-01-30T07:36:51;12.10;;;5.32;;
83630;SDS011;73593;52.134;5.426;2024-01-30T07:39:21;11.30;;;5.55;;
83630;SDS011;73593;52.134;5.426;2024-01-30T07:41:48;12.13;;;5.20;;
83630;SDS011;73593;52.134;5.426;2024-01-30T07:44:15;10.35;;;4.50;;
83630;SDS011;73593;52.134;5.426;2024-01-30T07:46:45;11.35;;;5.03;;
83630;SDS011;73593;52.134;5.426;2024-01-30T07:49:13;9.85;;;5.00;;
83630;SDS011;73593;52.134;5.426;2024-01-30T07:51:43;8.27;;;4.28;;
83630;SDS011;73593;52.134;5.426;2024-01-30T07:54:11;10.50;;;5.05;;
83630;SDS011;73593;52.134;5.426;2024-01-30T07:56:38;10.73;;;4.90;;
83630;SDS011;73593;52.134;5.426;2024-01-30T07:59:05;10.82;;;5.40;;
83630;SDS011;73593;52.134;5.426;2024-01-30T08:01:31;13.70;;;5.68;;
83630;SDS011;73593;52.134;5.426;2024-01-30T08:04:00;11.52;;;4.93;;
83630;SDS011;73593;52.134;5.426;2024-01-30T08:06:27;10.32;;;4.90;;
83630;SDS011;73593;52.134;5.426;2024-01-30T08:08:54;14.27;;;5.93;;
83630;SDS011;73593;52.134;5.426;2024-01-30T08:11:21;14.52;;;5.10;;
83630;SDS011;73593;52.134;5.426;2024-01-30T08:13:52;9.80;;;5.20;;
83630;SDS011;73593;52.134;5.426;2024-01-30T08:16:19;13.15;;;5.90;;
83630;SDS011;73593;52.134;5.426;2024-01-30T08:18:48;10.30;;;4.53;;
83630;SDS011;73593;52.134;5.426;2024-01-30T08:21:15;13.57;;;5.43;;
83630;SDS011;73593;52.134;5.426;2024-01-30T08:23:41;14.98;;;5.65;;
83630;SDS011;73593;52.134;5.426;2024-01-30T08:26:13;10.30;;;4.50;;
83630;SDS011;73593;52.134;5.426;2024-01-30T08:28:40;14.35;;;5.32;;
83630;SDS011;73593;52.134;5.426;2024-01-30T08:31:09;10.30;;;4.47;;
83630;SDS011;73593;52.134;5.426;2024-01-30T08:33:36;11.18;;;5.30;;
83630;SDS011;73593;52.134;5.426;2024-01-30T08:36:05;12.15;;;4.90;;
83630;SDS011;73593;52.134;5.426;2024-01-30T08:38:36;13.80;;;5.63;;
83630;SDS011;73593;52.134;5.426;2024-01-30T08:41:03;10.75;;;4.57;;
83630;SDS011;73593;52.134;5.426;2024-01-30T08:43:32;18.20;;;7.18;;
83630;SDS011;73593;52.134;5.426;2024-01-30T08:45:59;13.48;;;5.47;;
83630;SDS011;73593;52.134;5.426;2024-01-30T08:48:26;11.65;;;5.03;;
83630;SDS011;73593;52.134;5.426;2024-01-30T08:50:53;13.23;;;4.70;;
83630;SDS011;73593;52.134;5.426;2024-01-30T08:53:23;9.52;;;4.75;;
83630;SDS011;73593;52.134;5.426;2024-01-30T08:55:52;10.95;;;4.43;;
83630;SDS011;73593;52.134;5.426;2024-01-30T08:58:18;12.85;;;5.05;;
83630;SDS011;73593;52.134;5.426;2024-01-30T09:00:45;10.75;;;4.57;;
83630;SDS011;73593;52.134;5.426;2024-01-30T09:03:12;11.18;;;5.15;;
83630;SDS011;73593;52.134;5.426;2024-01-30T09:05:39;16.38;;;5.10;;
83630;SDS011;73593;52.134;5.426;2024-01-30T09:08:08;13.45;;;5.30;;
83630;SDS011;73593;52.134;5.426;2024-01-30T09:10:35;11.30;;;4.70;;
83630;SDS011;73593;52.134;5.426;2024-01-30T09:13:01;9.73;;;4.63;;
83630;SDS011;73593;52.134;5.426;2024-01-30T09:15:28;13.27;;;5.28;;
83630;SDS011;73593;52.134;5.426;2024-01-30T09:17:57;13.02;;;5.32;;
83630;SDS011;73593;52.134;5.426;2024-01-30T09:20:26;10.93;;;4.70;;
83630;SDS011;73593;52.134;5.426;2024-01-30T09:22:52;14.30;;;5.97;;
83630;SDS011;73593;52.134;5.426;2024-01-30T09:25:24;12.68;;;5.10;;
83630;SDS011;73593;52.134;5.426;2024-01-30T09:27:55;9.70;;;4.30;;
83630;SDS011;73593;52.134;5.426;2024-01-30T09:30:22;10.70;;;4.65;;
83630;SDS011;73593;52.134;5.426;2024-01-30T09:32:51;16.20;;;5.35;;
83630;SDS011;73593;52.134;5.426;2024-01-30T09:35:18;11.60;;;4.70;;
83630;SDS011;73593;52.134;5.426;2024-01-30T09:37:44;13.43;;;4.93;;
83630;SDS011;73593;52.134;5.426;2024-01-30T09:40:18;10.02;;;4.88;;
83630;SDS011;73593;52.134;5.426;2024-01-30T09:42:49;11.55;;;4.70;;
83630;SDS011;73593;52.134;5.426;2024-01-30T09:45:17;12.25;;;4.75;;
83630;SDS011;73593;52.134;5.426;2024-01-30T09:47:44;13.30;;;5.50;;
83630;SDS011;73593;52.134;5.426;2024-01-30T09:50:15;9.90;;;4.45;;
83630;SDS011;73593;52.134;5.426;2024-01-30T09:52:42;10.55;;;4.57;;
83630;SDS011;73593;52.134;5.426;2024-01-30T09:55:13;32.40;;;13.75;;
83630;SDS011;73593;52.134;5.426;2024-01-30T09:57:42;13.20;;;5.35;;
83630;SDS011;73593;52.134;5.426;2024-01-30T10:00:09;11.77;;;5.15;;
83630;SDS011;73593;52.134;5.426;2024-01-30T10:02:36;11.07;;;4.65;;
83630;SDS011;73593;52.134;5.426;2024-01-30T10:05:09;11.57;;;5.00;;
83630;SDS011;73593;52.134;5.426;2024-01-30T10:07:36;11.60;;;4.63;;
83630;SDS011;73593;52.134;5.426;2024-01-30T10:10:05;11.00;;;5.55;;
83630;SDS011;73593;52.134;5.426;2024-01-30T10:12:33;13.10;;;4.75;;
83630;SDS011;73593;52.134;5.426;2024-01-30T10:15:06;10.38;;;4.85;;
83630;SDS011;73593;52.134;5.426;2024-01-30T10:17:37;11.43;;;5.20;;
83630;SDS011;73593;52.134;5.426;2024-01-30T10:20:04;10.75;;;4.53;;
83630;SDS011;73593;52.134;5.426;2024-01-30T10:22:34;12.73;;;5.50;;
83630;SDS011;73593;52.134;5.426;2024-01-30T10:25:01;11.20;;;5.22;;
83630;SDS011;73593;52.134;5.426;2024-01-30T10:27:32;11.00;;;5.15;;
83630;SDS011;73593;52.134;5.426;2024-01-30T10:29:58;13.73;;;4.97;;
83630;SDS011;73593;52.134;5.426;2024-01-30T10:32:25;12.73;;;5.57;;
83630;SDS011;73593;52.134;5.426;2024-01-30T10:34:52;11.15;;;5.18;;
83630;SDS011;73593;52.134;5.426;2024-01-30T10:37:19;10.18;;;5.10;;
83630;SDS011;73593;52.134;5.426;2024-01-30T10:39:52;11.88;;;5.15;;
83630;SDS011;73593;52.134;5.426;2024-01-30T10:42:21;10.68;;;4.78;;
83630;SDS011;73593;52.134;5.426;2024-01-30T10:44:56;14.40;;;5.28;;
83630;SDS011;73593;52.134;5.426;2024-01-30T10:47:34;10.02;;;4.60;;
83630;SDS011;73593;52.134;5.426;2024-01-30T10:50:03;13.93;;;4.90;;
83630;SDS011;73593;52.134;5.426;2024-01-30T10:52:32;11.10;;;5.22;;
83630;SDS011;73593;52.134;5.426;2024-01-30T10:54:59;12.27;;;5.03;;
83630;SDS011;73593;52.134;5.426;2024-01-30T10:59:57;13.05;;;4.90;;
83630;SDS011;73593;52.134;5.426;2024-01-30T11:02:25;10.43;;;4.75;;
83630;SDS011;73593;52.134;5.426;2024-01-30T11:04:56;12.02;;;5.03;;
83630;SDS011;73593;52.134;5.426;2024-01-30T11:07:28;11.70;;;4.32;;
83630;SDS011;73593;52.134;5.426;2024-01-30T11:12:41;10.75;;;4.45;;
83630;SDS011;73593;52.134;5.426;2024-01-30T11:17:41;12.15;;;4.47;;
83630;SDS011;73593;52.134;5.426;2024-01-30T11:20:29;11.60;;;5.40;;
83630;SDS011;73593;52.134;5.426;2024-01-30T11:23:02;9.07;;;4.47;;
83630;SDS011;73593;52.134;5.426;2024-01-30T11:25:32;10.02;;;4.50;;
83630;SDS011;73593;52.134;5.426;2024-01-30T11:27:59;9.75;;;4.00;;
83630;SDS011;73593;52.134;5.426;2024-01-30T11:30:30;8.73;;;3.60;;
83630;SDS011;73593;52.134;5.426;2024-01-30T11:33:02;9.30;;;4.03;;
83630;SDS011;73593;52.134;5.426;2024-01-30T11:35:32;10.55;;;3.83;;
83630;SDS011;73593;52.134;5.426;2024-01-30T11:38:00;11.30;;;3.55;;
83630;SDS011;73593;52.134;5.426;2024-01-30T11:40:28;8.90;;;3.03;;
83630;SDS011;73593;52.134;5.426;2024-01-30T11:42:57;7.53;;;2.55;;
83630;SDS011;73593;52.134;5.426;2024-01-30T11:45:28;8.15;;;2.05;;
83630;SDS011;73593;52.134;5.426;2024-01-30T11:47:55;6.53;;;1.92;;
83630;SDS011;73593;52.134;5.426;2024-01-30T11:50:23;5.22;;;1.48;;
83630;SDS011;73593;52.134;5.426;2024-01-30T11:52:51;5.22;;;1.77;;
83630;SDS011;73593;52.134;5.426;2024-01-30T11:55:17;3.58;;;1.30;;
83630;SDS011;73593;52.134;5.426;2024-01-30T11:57:45;4.43;;;1.40;;
83630;SDS011;73593;52.134;5.426;2024-01-30T12:00:15;6.78;;;1.13;;
83630;SDS011;73593;52.134;5.426;2024-01-30T12:02:43;4.88;;;1.63;;
83630;SDS011;73593;52.134;5.426;2024-01-30T12:05:13;5.72;;;0.98;;
83630;SDS011;73593;52.134;5.426;2024-01-30T12:07:43;6.20;;;1.35;;
83630;SDS011;73593;52.134;5.426;2024-01-30T12:10:15;3.95;;;1.40;;
83630;SDS011;73593;52.134;5.426;2024-01-30T12:12:43;3.15;;;1.10;;
83630;SDS011;73593;52.134;5.426;2024-01-30T12:15:13;6.32;;;1.48;;
83630;SDS011;73593;52.134;5.426;2024-01-30T12:17:41;4.47;;;1.10;;
83630;SDS011;73593;52.134;5.426;2024-01-30T12:20:12;4.55;;;0.90;;
83630;SDS011;73593;52.134;5.426;2024-01-30T12:22:41;7.63;;;1.50;;
83630;SDS011;73593;52.134;5.426;2024-01-30T12:25:10;5.28;;;1.13;;
83630;SDS011;73593;52.134;5.426;2024-01-30T12:27:41;4.80;;;1.23;;
83630;SDS011;73593;52.134;5.426;2024-01-30T12:30:10;10.68;;;1.90;;
83630;SDS011;73593;52.134;5.426;2024-01-30T12:32:44;5.40;;;2.05;;
83630;SDS011;73593;52.134;5.426;2024-01-30T12:35:17;4.65;;;1.65;;
83630;SDS011;73593;52.134;5.426;2024-01-30T12:37:49;4.93;;;1.65;;
83630;SDS011;73593;52.134;5.426;2024-01-30T12:42:50;9.90;;;2.00;;
83630;SDS011;73593;52.134;5.426;2024-01-30T12:45:19;7.32;;;1.88;;
83630;SDS011;73593;52.134;5.426;2024-01-30T12:47:49;4.82;;;1.38;;
83630;SDS011;73593;52.134;5.426;2024-01-30T12:50:16;6.65;;;1.70;;
83630;SDS011;73593;52.134;5.426;2024-01-30T12:52:44;5.32;;;1.70;;
83630;SDS011;73593;52.134;5.426;2024-01-30T12:55:15;6.78;;;1.58;;
83630;SDS011;73593;52.134;5.426;2024-01-30T12:57:42;5.25;;;1.52;;
83630;SDS011;73593;52.134;5.426;2024-01-30T13:00:09;3.85;;;1.33;;
83630;SDS011;73593;52.134;5.426;2024-01-30T13:02:38;6.82;;;2.33;;
83630;SDS011;73593;52.134;5.426;2024-01-30T13:05:05;4.00;;;1.80;;
83630;SDS011;73593;52.134;5.426;2024-01-30T13:07:34;5.50;;;1.92;;
83630;SDS011;73593;52.134;5.426;2024-01-30T13:10:03;3.63;;;1.30;;
83630;SDS011;73593;52.134;5.426;2024-01-30T13:12:33;5.68;;;1.55;;
83630;SDS011;73593;52.134;5.426;2024-01-30T13:15:00;4.32;;;1.40;;
83630;SDS011;73593;52.134;5.426;2024-01-30T13:17:27;3.30;;;1.30;;
83630;SDS011;73593;52.134;5.426;2024-01-30T13:19:54;4.22;;;1.20;;
83630;SDS011;73593;52.134;5.426;2024-01-30T13:22:27;3.38;;;0.85;;
83630;SDS011;73593;52.134;5.426;2024-01-30T13:24:54;5.35;;;1.35;;
83630;SDS011;73593;52.134;5.426;2024-01-30T13:27:23;3.60;;;0.98;;
83630;SDS011;73593;52.134;5.426;2024-01-30T13:29:50;2.53;;;0.90;;
83630;SDS011;73593;52.134;5.426;2024-01-30T13:32:19;3.72;;;0.88;;
83630;SDS011;73593;52.134;5.426;2024-01-30T13:34:46;1.95;;;0.70;;
83630;SDS011;73593;52.134;5.426;2024-01-30T13:37:12;3.30;;;0.70;;
83630;SDS011;73593;52.134;5.426;2024-01-30T13:39:41;4.38;;;0.98;;
83630;SDS011;73593;52.134;5.426;2024-01-30T13:42:11;3.78;;;0.82;;
83630;SDS011;73593;52.134;5.426;2024-01-30T13:44:38;3.13;;;0.68;;
83630;SDS011;73593;52.134;5.426;2024-01-30T13:47:04;1.95;;;0.60;;
83630;SDS011;73593;52.134;5.426;2024-01-30T13:49:33;3.83;;;1.00;;
83630;SDS011;73593;52.134;5.426;2024-01-30T13:52:00;2.90;;;0.82;;
83630;SDS011;73593;52.134;5.426;2024-01-30T13:54:27;3.55;;;0.98;;
83630;SDS011;73593;52.134;5.426;2024-01-30T13:56:54;5.45;;;0.90;;
83630;SDS011;73593;52.134;5.426;2024-01-30T13:59:21;4.18;;;1.05;;
83630;SDS011;73593;52.134;5.426;2024-01-30T14:01:50;2.50;;;0.75;;
83630;SDS011;73593;52.134;5.426;2024-01-30T14:04:21;3.50;;;0.60;;
83630;SDS011;73593;52.134;5.426;2024-01-30T14:06:50;3.80;;;0.88;;
83630;SDS011;73593;52.134;5.426;2024-01-30T14:12:01;2.50;;;0.68;;
83630;SDS011;73593;52.134;5.426;2024-01-30T14:14:28;3.53;;;0.80;;
83630;SDS011;73593;52.134;5.426;2024-01-30T14:16:57;2.17;;;0.93;;
83630;SDS011;73593;52.134;5.426;2024-01-30T14:19:24;5.07;;;0.80;;
83630;SDS011;73593;52.134;5.426;2024-01-30T14:21:51;2.38;;;1.05;;
83630;SDS011;73593;52.134;5.426;2024-01-30T14:24:20;4.72;;;0.73;;
83630;SDS011;73593;52.134;5.426;2024-01-30T14:26:49;3.10;;;0.75;;
83630;SDS011;73593;52.134;5.426;2024-01-30T14:29:19;5.07;;;1.10;;
83630;SDS011;73593;52.134;5.426;2024-01-30T14:31:46;5.13;;;1.00;;
83630;SDS011;73593;52.134;5.426;2024-01-30T14:34:15;3.50;;;1.02;;
83630;SDS011;73593;52.134;5.426;2024-01-30T14:36:45;2.35;;;0.82;;
83630;SDS011;73593;52.134;5.426;2024-01-30T14:39:11;4.28;;;1.08;;
83630;SDS011;73593;52.134;5.426;2024-01-30T14:41:38;3.47;;;1.10;;
83630;SDS011;73593;52.134;5.426;2024-01-30T14:44:04;4.40;;;0.98;;
83630;SDS011;73593;52.134;5.426;2024-01-30T14:46:33;4.68;;;0.95;;
83630;SDS011;73593;52.134;5.426;2024-01-30T14:48:59;3.88;;;0.88;;
83630;SDS011;73593;52.134;5.426;2024-01-30T14:51:27;3.90;;;1.00;;
83630;SDS011;73593;52.134;5.426;2024-01-30T14:53:55;6.88;;;1.27;;
83630;SDS011;73593;52.134;5.426;2024-01-30T14:56:22;6.32;;;1.27;;
83630;SDS011;73593;52.134;5.426;2024-01-30T14:58:49;4.70;;;1.52;;